createdAt,value
2022-08-22T00:02:27.868Z,98616.45
2022-08-22T00:07:47.676Z,98615.25
2022-08-22T00:13:03.082Z,98606.86
2022-08-22T00:18:16.859Z,98601.46
2022-08-22T00:23:29.593Z,98598.46
2022-08-22T00:28:41.252Z,98597.60
2022-08-22T00:33:53.908Z,98604.50
2022-08-22T00:39:13.307Z,98601.27
2022-08-22T00:44:58.277Z,98603.82
2022-08-22T00:50:34.619Z,98597.93
2022-08-22T00:56:04.538Z,98602.35
2022-08-22T01:01:15.905Z,98592.16
2022-08-22T01:06:30.653Z,98588.77
2022-08-22T01:12:12.240Z,98587.04
2022-08-22T01:18:06.724Z,98582.46
2022-08-22T01:23:47.795Z,98583.85
2022-08-22T01:29:44.954Z,98587.65
2022-08-22T01:35:10.566Z,98580.70
2022-08-22T01:40:57.993Z,98579.52
2022-08-22T01:46:24.735Z,98581.04
2022-08-22T01:51:42.069Z,98585.72
2022-08-22T01:56:50.509Z,98590.65
2022-08-22T02:02:02.983Z,98593.91
2022-08-22T02:07:19.863Z,98588.34
2022-08-22T02:12:36.987Z,98588.46
2022-08-22T02:18:02.203Z,98590.71
2022-08-22T02:23:19.541Z,98589.20
2022-08-22T02:28:56.943Z,98583.35
2022-08-22T02:34:18.543Z,98582.00
2022-08-22T02:39:35.355Z,98580.37
2022-08-22T02:44:44.051Z,98583.78
2022-08-22T02:50:01.280Z,98582.34
2022-08-22T02:55:14.620Z,98581.65
2022-08-22T03:00:32.359Z,98582.04
2022-08-22T03:06:01.594Z,98584.64
2022-08-22T03:11:17.637Z,98589.36
2022-08-22T03:16:35.334Z,98580.27
2022-08-22T03:21:48.991Z,98586.46
2022-08-22T03:27:07.552Z,98583.10
2022-08-22T03:32:19.367Z,98588.51
2022-08-22T03:37:37.929Z,98588.89
2022-08-22T03:43:06.921Z,98591.04
2022-08-22T03:48:48.416Z,98589.65
2022-08-22T03:54:20.889Z,98589.69
2022-08-22T04:00:00.426Z,98602.40
2022-08-22T04:05:34.324Z,98604.39
2022-08-22T04:11:12.668Z,98611.17
2022-08-22T04:17:10.316Z,98613.52
2022-08-22T04:22:34.378Z,98621.33
2022-08-22T04:27:51.020Z,98611.45
2022-08-22T04:32:58.406Z,98614.70
2022-08-22T04:38:11.674Z,98616.21
2022-08-22T04:43:25.429Z,98618.14
2022-08-22T04:48:37.856Z,98622.23
2022-08-22T04:54:03.584Z,98621.26
2022-08-22T04:59:17.644Z,98625.52
2022-08-22T05:04:29.287Z,98627.14
2022-08-22T05:09:40.237Z,98625.66
2022-08-22T05:14:54.390Z,98631.69
2022-08-22T05:20:05.273Z,98634.18
2022-08-22T05:25:16.747Z,98644.18
2022-08-22T05:30:26.599Z,98646.59
2022-08-22T05:35:39.114Z,98653.17
2022-08-22T05:40:52.431Z,98652.15
2022-08-22T05:46:01.161Z,98660.71
2022-08-22T05:51:19.067Z,98664.07
2022-08-22T05:56:35.990Z,98674.80
2022-08-22T06:01:53.407Z,98674.81
2022-08-22T06:07:06.623Z,98675.77
2022-08-22T06:12:22.148Z,98678.39
2022-08-22T06:17:34.963Z,98675.02
2022-08-22T06:22:51.401Z,98670.27
2022-08-22T06:28:00.119Z,98666.09
2022-08-22T06:33:12.541Z,98676.15
2022-08-22T06:38:21.983Z,98681.58
2022-08-22T06:43:32.408Z,98682.55
2022-08-22T06:48:39.866Z,98680.65
2022-08-22T06:53:49.079Z,98678.49
2022-08-22T06:58:58.888Z,98678.05
2022-08-22T07:04:10.503Z,98681.80
2022-08-22T07:09:31.017Z,98685.54
2022-08-22T07:14:44.153Z,98689.74
2022-08-22T07:20:00.212Z,98688.30
2022-08-22T07:25:14.108Z,98696.80
2022-08-22T07:30:27.820Z,98698.70
2022-08-22T07:35:42.942Z,98705.04
2022-08-22T07:41:08.777Z,98707.59
2022-08-22T07:46:28.991Z,98702.81
2022-08-22T07:51:46.518Z,98705.13
2022-08-22T07:57:00.792Z,98706.30
2022-08-22T08:02:13.571Z,98706.17
2022-08-22T08:07:25.129Z,98704.28
2022-08-22T08:12:35.611Z,98702.44
2022-08-22T08:17:44.407Z,98700.91
2022-08-22T08:22:54.284Z,98699.73
2022-08-22T08:28:20.351Z,98699.36
2022-08-22T08:33:33.247Z,98702.61
2022-08-22T08:38:47.009Z,98694.48
2022-08-22T08:44:02.773Z,98696.75
2022-08-22T08:55:00.850Z,98697.95
2022-08-22T09:00:15.016Z,98700.20
2022-08-22T09:06:09.278Z,98705.69
2022-08-22T09:11:47.010Z,98708.30
2022-08-22T09:17:16.545Z,98713.73
2022-08-22T09:22:58.843Z,98709.33
2022-08-22T09:28:17.878Z,98711.33
2022-08-22T09:33:32.037Z,98719.80
2022-08-22T09:38:51.258Z,98729.38
2022-08-22T09:40:16.304Z,98694.19
2022-08-22T09:44:13.464Z,98734.09
2022-08-22T09:49:29.523Z,98736.52
2022-08-22T09:54:44.904Z,98734.43
2022-08-22T10:00:22.052Z,98737.24
2022-08-22T10:05:44.415Z,98742.40
2022-08-22T10:11:17.643Z,98743.48
2022-08-22T10:16:35.073Z,98732.19
2022-08-22T10:22:08.875Z,98731.78
2022-08-22T10:27:19.776Z,98719.59
2022-08-22T10:32:40.048Z,98732.24
2022-08-22T10:37:59.207Z,98738.61
2022-08-22T10:43:13.281Z,98747.05
2022-08-22T10:48:41.261Z,98744.95
2022-08-22T10:54:19.828Z,98735.98
2022-08-22T10:59:39.388Z,98730.69
2022-08-22T11:05:08.584Z,98727.77
2022-08-22T11:10:25.922Z,98722.42
2022-08-22T11:15:57.405Z,98721.56
2022-08-22T11:21:09.786Z,98719.85
2022-08-22T11:26:46.672Z,98722.59
2022-08-22T11:32:06.697Z,98708.23
2022-08-22T11:37:42.682Z,98702.21
2022-08-22T11:42:59.082Z,98696.61
2022-08-22T11:48:18.080Z,98690.46
2022-08-22T11:53:35.261Z,98687.15
2022-08-22T11:59:02.452Z,98689.66
2022-08-22T12:04:18.661Z,98687.22
2022-08-22T12:09:50.747Z,98675.61
2022-08-22T12:15:08.877Z,98668.56
2022-08-22T12:20:33.247Z,98663.30
2022-08-22T12:25:58.584Z,98662.40
2022-08-22T12:31:16.249Z,98659.80
2022-08-22T12:36:41.523Z,98662.65
2022-08-22T12:42:18.046Z,98666.06
2022-08-22T12:47:45.363Z,98663.77
2022-08-22T12:53:10.886Z,98658.58
2022-08-22T12:58:34.103Z,98658.30
2022-08-22T13:03:48.665Z,98660.96
2022-08-22T13:08:56.139Z,98665.01
2022-08-22T13:14:04.473Z,98665.48
2022-08-22T13:19:18.740Z,98669.56
2022-08-22T13:24:38.894Z,98671.45
2022-08-22T13:29:53.317Z,98667.71
2022-08-22T13:35:01.331Z,98664.42
2022-08-22T13:40:14.252Z,98659.26
2022-08-22T13:45:28.936Z,98659.64
2022-08-22T13:50:53.656Z,98652.73
2022-08-22T13:56:15.876Z,98651.84
2022-08-22T14:01:35.898Z,98652.77
2022-08-22T14:06:52.994Z,98646.23
2022-08-22T14:12:12.210Z,98643.49
2022-08-22T14:17:24.415Z,98633.65
2022-08-22T14:22:35.032Z,98630.13
2022-08-22T14:28:01.054Z,98635.36
2022-08-22T14:33:21.353Z,98643.83
2022-08-22T14:38:38.375Z,98640.37
2022-08-22T14:43:57.100Z,98644.38
2022-08-22T14:49:28.756Z,98644.40
2022-08-22T14:54:37.472Z,98637.24
2022-08-22T14:59:50.587Z,98635.30
2022-08-22T15:05:01.927Z,98633.81
2022-08-22T15:10:22.707Z,98635.98
2022-08-22T15:15:41.285Z,98637.92
2022-08-22T15:21:08.909Z,98634.70
2022-08-22T15:26:28.506Z,98635.08
2022-08-22T15:31:39.638Z,98641.47
2022-08-22T15:37:28.634Z,98642.73
2022-08-22T15:42:38.570Z,98646.80
2022-08-22T15:47:52.585Z,98643.89
2022-08-22T15:53:15.996Z,98645.02
2022-08-22T15:58:25.939Z,98646.65
2022-08-22T16:03:35.408Z,98651.80
2022-08-22T16:08:52.311Z,98649.30
2022-08-22T16:14:21.754Z,98655.23
2022-08-22T16:19:30.261Z,98665.09
2022-08-22T16:24:59.583Z,98669.94
2022-08-22T16:30:17.686Z,98670.02
2022-08-22T16:35:58.867Z,98671.08
2022-08-22T16:41:06.496Z,98676.03
2022-08-22T16:52:18.334Z,98654.37
2022-08-22T16:57:31.423Z,98654.52
2022-08-22T17:02:59.160Z,98664.98
2022-08-22T17:08:21.261Z,98668.77
2022-08-22T17:13:48.564Z,98671.14
2022-08-22T17:19:01.087Z,98678.32
2022-08-22T17:24:31.946Z,98691.38
2022-08-22T17:30:00.570Z,98694.54
2022-08-22T17:35:19.415Z,98685.33
2022-08-22T17:40:35.477Z,98694.63
2022-08-22T17:46:01.571Z,98692.00
2022-08-22T17:51:28.271Z,98693.85
2022-08-22T17:56:45.515Z,98697.66
2022-08-22T18:02:00.285Z,98702.29
2022-08-22T18:07:41.401Z,98716.23
2022-08-22T18:12:55.899Z,98728.52
2022-08-22T18:18:07.778Z,98730.64
2022-08-22T18:23:38.981Z,98729.91
2022-08-22T18:28:55.616Z,98716.52
2022-08-22T18:34:09.454Z,98717.77
2022-08-22T18:39:23.242Z,98722.83
2022-08-22T18:44:33.257Z,98715.95
2022-08-22T18:49:44.290Z,98720.56
2022-08-22T18:55:08.611Z,98717.88
2022-08-22T19:00:19.011Z,98730.96
2022-08-22T19:05:57.105Z,98721.70
2022-08-22T19:11:24.530Z,98714.21
2022-08-22T19:16:52.235Z,98719.16
2022-08-22T19:22:27.000Z,98741.23
2022-08-22T19:27:36.144Z,98749.91
2022-08-22T19:33:07.740Z,98759.46
2022-08-22T19:38:35.286Z,98762.05
2022-08-22T19:43:44.695Z,98778.48
2022-08-22T19:48:53.271Z,98779.50
2022-08-22T19:54:23.001Z,98739.15
2022-08-22T19:59:50.528Z,98749.80
2022-08-22T20:05:28.649Z,98731.39
2022-08-22T20:10:49.754Z,98724.52
2022-08-22T20:16:23.758Z,98743.50
2022-08-22T20:21:51.231Z,98777.71
2022-08-22T20:27:13.792Z,98797.20
2022-08-22T20:32:26.270Z,98774.79
2022-08-22T20:38:05.218Z,98799.45
2022-08-22T20:43:10.960Z,98799.60
2022-08-22T20:48:18.067Z,98790.81
2022-08-22T20:53:25.410Z,98786.63
2022-08-22T20:58:48.606Z,98782.72
2022-08-22T21:03:57.852Z,98760.54
2022-08-22T21:09:35.238Z,98749.51
2022-08-22T21:14:46.351Z,98741.50
2022-08-22T21:19:53.809Z,98741.20
2022-08-22T21:25:05.320Z,98746.96
2022-08-22T21:30:22.902Z,98752.09
2022-08-22T21:35:33.140Z,98771.45
2022-08-22T21:40:40.838Z,98777.80
2022-08-22T21:45:48.187Z,98778.46
2022-08-22T21:50:55.126Z,98768.66
2022-08-22T21:56:16.386Z,98743.94
2022-08-22T22:01:31.766Z,98713.92
2022-08-22T22:06:39.372Z,98689.25
2022-08-22T22:11:46.619Z,98690.86
2022-08-22T22:16:53.781Z,98682.59
2022-08-22T22:22:00.768Z,98676.23
2022-08-22T22:27:09.615Z,98669.23
2022-08-22T22:32:18.749Z,98661.73
2022-08-22T22:37:26.479Z,98655.88
2022-08-22T22:42:33.652Z,98657.73
2022-08-22T22:47:40.801Z,98655.58
2022-08-22T22:52:47.918Z,98651.27
2022-08-22T22:57:59.088Z,98651.96
2022-08-22T23:03:08.448Z,98661.11
2022-08-22T23:08:15.767Z,98662.21
2022-08-22T23:13:23.559Z,98652.65
2022-08-22T23:18:32.576Z,98653.79
2022-08-22T23:23:41.043Z,98656.02
2022-08-22T23:28:48.171Z,98652.70
2022-08-22T23:33:55.754Z,98650.89
2022-08-22T23:39:02.863Z,98656.73
2022-08-22T23:44:13.650Z,98670.54
2022-08-22T23:49:21.468Z,98684.72
2022-08-22T23:54:29.669Z,98688.16
2022-08-22T23:59:38.548Z,98685.79
